sensor_id;sensor_type;location;lat;lon;timestamp;temperature;humidity
58363;DHT22;54977;51.510;7.522;2022-09-11T00:02:55;16.00;77.00
58363;DHT22;54977;51.510;7.522;2022-09-11T00:07:57;16.00;76.90
58363;DHT22;54977;51.510;7.522;2022-09-11T00:13:00;15.80;77.30
58363;DHT22;54977;51.510;7.522;2022-09-11T00:18:04;15.90;77.20
58363;DHT22;54977;51.510;7.522;2022-09-11T00:23:07;15.80;77.20
58363;DHT22;54977;51.510;7.522;2022-09-11T00:28:11;15.80;78.00
58363;DHT22;54977;51.510;7.522;2022-09-11T00:33:16;15.80;77.30
58363;DHT22;54977;51.510;7.522;2022-09-11T00:38:18;15.70;77.40
58363;DHT22;54977;51.510;7.522;2022-09-11T00:43:20;15.70;77.20
58363;DHT22;54977;51.510;7.522;2022-09-11T00:48:26;15.60;77.10
58363;DHT22;54977;51.510;7.522;2022-09-11T00:53:33;15.60;77.20
58363;DHT22;54977;51.510;7.522;2022-09-11T00:58:38;15.50;77.40
58363;DHT22;54977;51.510;7.522;2022-09-11T01:03:45;15.40;77.50
58363;DHT22;54977;51.510;7.522;2022-09-11T01:08:47;15.40;77.70
58363;DHT22;54977;51.510;7.522;2022-09-11T01:13:54;15.40;77.30
58363;DHT22;54977;51.510;7.522;2022-09-11T01:19:03;15.30;77.30
58363;DHT22;54977;51.510;7.522;2022-09-11T01:24:18;15.20;77.40
58363;DHT22;54977;51.510;7.522;2022-09-11T01:29:28;15.30;77.40
58363;DHT22;54977;51.510;7.522;2022-09-11T01:34:35;15.20;77.50
58363;DHT22;54977;51.510;7.522;2022-09-11T01:39:42;15.20;77.50
58363;DHT22;54977;51.510;7.522;2022-09-11T01:44:49;15.30;77.60
58363;DHT22;54977;51.510;7.522;2022-09-11T01:49:56;15.40;77.70
58363;DHT22;54977;51.510;7.522;2022-09-11T01:55:01;15.50;77.70
58363;DHT22;54977;51.510;7.522;2022-09-11T02:00:09;15.50;77.90
58363;DHT22;54977;51.510;7.522;2022-09-11T02:05:15;15.70;78.30
58363;DHT22;54977;51.510;7.522;2022-09-11T03:21:28;15.70;77.60
58363;DHT22;54977;51.510;7.522;2022-09-11T03:26:30;16.10;76.90
58363;DHT22;54977;51.510;7.522;2022-09-11T03:31:33;16.10;76.80
58363;DHT22;54977;51.510;7.522;2022-09-11T03:36:35;16.10;77.60
58363;DHT22;54977;51.510;7.522;2022-09-11T03:41:37;16.10;77.00
58363;DHT22;54977;51.510;7.522;2022-09-11T03:46:40;16.20;76.90
58363;DHT22;54977;51.510;7.522;2022-09-11T03:51:42;16.20;77.40
58363;DHT22;54977;51.510;7.522;2022-09-11T03:56:44;16.20;76.80
58363;DHT22;54977;51.510;7.522;2022-09-11T04:01:47;16.30;76.60
58363;DHT22;54977;51.510;7.522;2022-09-11T04:06:49;16.30;76.50
58363;DHT22;54977;51.510;7.522;2022-09-11T04:16:54;16.20;76.60
58363;DHT22;54977;51.510;7.522;2022-09-11T04:21:56;16.10;76.90
58363;DHT22;54977;51.510;7.522;2022-09-11T04:26:58;16.10;77.00
58363;DHT22;54977;51.510;7.522;2022-09-11T04:32:02;16.20;76.90
58363;DHT22;54977;51.510;7.522;2022-09-11T04:37:04;16.30;76.90
58363;DHT22;54977;51.510;7.522;2022-09-11T04:42:05;16.40;76.70
58363;DHT22;54977;51.510;7.522;2022-09-11T04:47:11;16.40;76.50
58363;DHT22;54977;51.510;7.522;2022-09-11T04:52:13;16.40;76.50
58363;DHT22;54977;51.510;7.522;2022-09-11T04:57:14;16.40;76.40
58363;DHT22;54977;51.510;7.522;2022-09-11T05:02:18;16.40;76.30
58363;DHT22;54977;51.510;7.522;2022-09-11T05:07:21;16.30;76.10
58363;DHT22;54977;51.510;7.522;2022-09-11T05:12:24;16.30;76.40
58363;DHT22;54977;51.510;7.522;2022-09-11T05:17:28;16.30;76.40
58363;DHT22;54977;51.510;7.522;2022-09-11T05:22:30;16.40;76.20
58363;DHT22;54977;51.510;7.522;2022-09-11T05:27:32;16.40;76.20
58363;DHT22;54977;51.510;7.522;2022-09-11T05:32:36;16.40;76.10
58363;DHT22;54977;51.510;7.522;2022-09-11T05:37:38;16.50;76.70
58363;DHT22;54977;51.510;7.522;2022-09-11T05:42:39;16.50;75.80
58363;DHT22;54977;51.510;7.522;2022-09-11T05:47:43;16.50;75.60
58363;DHT22;54977;51.510;7.522;2022-09-11T05:52:45;16.50;75.80
58363;DHT22;54977;51.510;7.522;2022-09-11T07:28:41;16.60;75.80
58363;DHT22;54977;51.510;7.522;2022-09-11T07:33:45;17.10;72.60
58363;DHT22;54977;51.510;7.522;2022-09-11T07:38:49;17.00;73.50
58363;DHT22;54977;51.510;7.522;2022-09-11T07:43:53;16.50;75.50
58363;DHT22;54977;51.510;7.522;2022-09-11T07:59:01;16.70;75.30
58363;DHT22;54977;51.510;7.522;2022-09-11T08:04:06;17.20;73.80
58363;DHT22;54977;51.510;7.522;2022-09-11T08:14:12;17.10;74.00
58363;DHT22;54977;51.510;7.522;2022-09-11T08:19:18;16.60;74.80
58363;DHT22;54977;51.510;7.522;2022-09-11T08:24:20;16.30;76.00
58363;DHT22;54977;51.510;7.522;2022-09-11T08:29:23;16.50;76.20
58363;DHT22;54977;51.510;7.522;2022-09-11T08:34:27;16.80;75.60
58363;DHT22;54977;51.510;7.522;2022-09-11T08:39:28;16.60;75.00
58363;DHT22;54977;51.510;7.522;2022-09-11T09:00:02;16.50;74.80
58363;DHT22;54977;51.510;7.522;2022-09-11T09:05:16;17.10;74.40
58363;DHT22;54977;51.510;7.522;2022-09-11T09:10:29;17.20;73.40
58363;DHT22;54977;51.510;7.522;2022-09-11T09:15:40;17.50;73.30
58363;DHT22;54977;51.510;7.522;2022-09-11T09:20:51;17.40;73.30
58363;DHT22;54977;51.510;7.522;2022-09-11T09:25:56;17.20;73.30
58363;DHT22;54977;51.510;7.522;2022-09-11T09:31:01;17.00;73.30
58363;DHT22;54977;51.510;7.522;2022-09-11T10:07:08;17.50;73.40
58363;DHT22;54977;51.510;7.522;2022-09-11T10:22:26;18.30;69.40
58363;DHT22;54977;51.510;7.522;2022-09-11T10:27:32;19.30;65.70
58363;DHT22;54977;51.510;7.522;2022-09-11T10:32:36;19.40;66.70
58363;DHT22;54977;51.510;7.522;2022-09-11T10:37:43;19.40;66.00
58363;DHT22;54977;51.510;7.522;2022-09-11T10:42:51;19.30;65.30
58363;DHT22;54977;51.510;7.522;2022-09-11T10:47:53;19.50;65.70
58363;DHT22;54977;51.510;7.522;2022-09-11T10:53:08;19.90;63.90
58363;DHT22;54977;51.510;7.522;2022-09-11T10:58:15;19.70;65.00
58363;DHT22;54977;51.510;7.522;2022-09-11T11:03:21;20.00;63.20
58363;DHT22;54977;51.510;7.522;2022-09-11T11:08:50;19.50;63.80
58363;DHT22;54977;51.510;7.522;2022-09-11T11:14:16;19.60;62.90
58363;DHT22;54977;51.510;7.522;2022-09-11T11:19:41;19.30;64.30
58363;DHT22;54977;51.510;7.522;2022-09-11T11:24:59;19.40;63.10
58363;DHT22;54977;51.510;7.522;2022-09-11T11:30:12;19.80;63.50
58363;DHT22;54977;51.510;7.522;2022-09-11T11:35:21;20.20;61.50
58363;DHT22;54977;51.510;7.522;2022-09-11T11:40:27;20.30;60.20
58363;DHT22;54977;51.510;7.522;2022-09-11T11:45:35;20.30;61.30
58363;DHT22;54977;51.510;7.522;2022-09-11T11:50:40;20.40;59.80
58363;DHT22;54977;51.510;7.522;2022-09-11T11:55:53;20.40;60.40
58363;DHT22;54977;51.510;7.522;2022-09-11T12:00:59;20.60;60.90
58363;DHT22;54977;51.510;7.522;2022-09-11T12:06:04;20.40;60.90
58363;DHT22;54977;51.510;7.522;2022-09-11T12:11:09;20.60;60.60
58363;DHT22;54977;51.510;7.522;2022-09-11T12:16:16;20.20;62.00
58363;DHT22;54977;51.510;7.522;2022-09-11T12:32:44;20.60;58.70
58363;DHT22;54977;51.510;7.522;2022-09-11T12:37:47;20.70;59.00
58363;DHT22;54977;51.510;7.522;2022-09-11T12:58:25;20.90;58.00
58363;DHT22;54977;51.510;7.522;2022-09-11T13:03:32;21.90;55.20
58363;DHT22;54977;51.510;7.522;2022-09-11T13:08:37;22.20;55.40
58363;DHT22;54977;51.510;7.522;2022-09-11T13:13:42;22.60;52.40
58363;DHT22;54977;51.510;7.522;2022-09-11T13:18:47;21.80;52.10
58363;DHT22;54977;51.510;7.522;2022-09-11T13:23:51;20.60;54.10
58363;DHT22;54977;51.510;7.522;2022-09-11T13:28:55;20.10;56.90
58363;DHT22;54977;51.510;7.522;2022-09-11T13:34:00;20.20;56.90
58363;DHT22;54977;51.510;7.522;2022-09-11T13:39:03;20.30;56.40
58363;DHT22;54977;51.510;7.522;2022-09-11T15:36:19;20.00;55.90
58363;DHT22;54977;51.510;7.522;2022-09-11T15:41:22;28.30;37.40
58363;DHT22;54977;51.510;7.522;2022-09-11T15:46:24;28.00;38.20
58363;DHT22;54977;51.510;7.522;2022-09-11T15:51:28;27.60;36.60
58363;DHT22;54977;51.510;7.522;2022-09-11T15:56:30;26.60;37.60
